createdAt,value
2019-02-08T00:00:28.727Z,4.60
2019-02-08T00:05:23.994Z,4.50
2019-02-08T00:10:20.581Z,4.50
2019-02-08T00:15:19.754Z,4.60
2019-02-08T00:20:20.470Z,4.70
2019-02-08T00:25:19.023Z,4.70
2019-02-08T00:30:26.070Z,4.70
2019-02-08T00:35:21.004Z,4.70
2019-02-08T00:40:24.270Z,4.60
2019-02-08T00:45:21.234Z,4.50
2019-02-08T00:50:22.853Z,4.50
2019-02-08T00:55:18.630Z,4.40
2019-02-08T01:00:16.424Z,4.40
2019-02-08T01:05:18.326Z,4.50
2019-02-08T01:10:17.498Z,4.40
2019-02-08T01:15:15.889Z,4.40
2019-02-08T01:20:17.832Z,4.40
2019-02-08T01:25:19.243Z,4.30
2019-02-08T01:30:18.501Z,4.30
2019-02-08T01:35:15.784Z,4.30
2019-02-08T01:40:23.134Z,4.20
2019-02-08T01:45:25.274Z,4.20
2019-02-08T01:50:26.788Z,4.10
2019-02-08T01:55:21.688Z,3.90
2019-02-08T02:00:26.446Z,3.90
2019-02-08T02:05:21.443Z,3.80
2019-02-08T02:10:25.816Z,3.80
2019-02-08T02:15:20.802Z,3.80
2019-02-08T02:20:28.692Z,3.80
2019-02-08T02:25:23.502Z,3.70
2019-02-08T02:30:28.189Z,3.70
2019-02-08T02:35:23.588Z,3.70
2019-02-08T02:40:21.086Z,3.80
2019-02-08T02:45:31.850Z,3.80
2019-02-08T02:50:26.680Z,3.80
2019-02-08T02:55:31.682Z,4.00
2019-02-08T03:00:43.240Z,3.90
2019-02-08T03:05:38.357Z,3.70
2019-02-08T03:10:33.162Z,3.60
2019-02-08T03:15:27.907Z,3.50
2019-02-08T03:20:25.215Z,3.50
2019-02-08T03:25:25.772Z,3.40
2019-02-08T03:30:28.498Z,3.50
2019-02-08T03:35:26.039Z,3.60
2019-02-08T03:40:24.972Z,3.90
2019-02-08T03:45:19.787Z,4.10
2019-02-08T03:50:21.853Z,4.10
2019-02-08T03:55:22.883Z,4.10
2019-02-08T04:00:37.336Z,4.00
2019-02-08T04:05:32.166Z,4.00
2019-02-08T04:10:27.783Z,4.00
2019-02-08T04:15:26.787Z,3.90
2019-02-08T04:20:26.798Z,3.70
2019-02-08T04:25:21.448Z,3.70
2019-02-08T04:30:31.758Z,3.50
2019-02-08T04:35:26.738Z,3.50
2019-02-08T04:40:26.754Z,3.50
2019-02-08T04:45:22.727Z,3.40
2019-02-08T04:50:21.010Z,3.10
2019-02-08T04:55:16.411Z,3.00
2019-02-08T05:00:30.132Z,3.00
2019-02-08T05:05:25.266Z,3.00
2019-02-08T05:10:34.524Z,3.00
2019-02-08T05:15:29.429Z,2.70
2019-02-08T05:20:30.463Z,2.70
2019-02-08T05:25:25.191Z,2.70
2019-02-08T05:30:29.792Z,2.70
2019-02-08T05:35:24.795Z,2.60
2019-02-08T05:40:21.793Z,2.50
2019-02-08T05:45:23.031Z,2.60
2019-02-08T05:50:21.334Z,2.50
2019-02-08T05:55:23.509Z,2.50
2019-02-08T06:00:27.088Z,2.40
2019-02-08T06:05:21.989Z,2.40
2019-02-08T06:10:17.394Z,2.50
2019-02-08T06:15:22.205Z,2.50
2019-02-08T06:20:20.954Z,2.50
2019-02-08T06:25:19.243Z,2.50
2019-02-08T06:30:20.929Z,2.40
2019-02-08T06:35:17.631Z,2.40
2019-02-08T06:40:35.452Z,2.30
2019-02-08T06:45:30.646Z,2.30
2019-02-08T06:50:27.899Z,2.30
2019-02-08T06:55:23.723Z,2.20
2019-02-08T07:00:24.526Z,2.10
2019-02-08T07:05:20.829Z,2.10
2019-02-08T07:10:23.461Z,2.20
2019-02-08T07:15:19.690Z,2.30
2019-02-08T07:20:22.157Z,2.40
2019-02-08T07:25:18.977Z,2.60
2019-02-08T07:30:17.738Z,2.70
2019-02-08T07:35:32.186Z,3.00
2019-02-08T07:40:35.384Z,3.10
2019-02-08T07:45:49.063Z,3.10
2019-02-08T07:50:45.410Z,3.20
2019-02-08T07:55:44.755Z,3.30
2019-02-08T08:00:54.096Z,3.60
2019-02-08T08:05:56.289Z,3.70
2019-02-08T08:10:52.773Z,3.90
2019-02-08T08:16:02.885Z,4.10
2019-02-08T08:21:05.415Z,4.30
2019-02-08T08:26:16.214Z,4.60
2019-02-08T08:31:14.308Z,4.70
2019-02-08T08:36:22.239Z,4.90
2019-02-08T08:42:01.030Z,4.90
2019-02-08T08:47:18.490Z,5.00
2019-02-08T08:52:23.322Z,5.10
2019-02-08T08:57:55.938Z,5.30
2019-02-08T09:03:19.046Z,5.60
2019-02-08T09:08:30.446Z,5.70
2019-02-08T09:13:53.262Z,5.70
2019-02-08T09:19:16.691Z,5.60
2019-02-08T09:24:41.011Z,5.50
2019-02-08T09:30:02.162Z,5.80
2019-02-08T09:35:24.034Z,5.70
2019-02-08T09:40:40.959Z,5.90
2019-02-08T09:46:10.139Z,5.90
2019-02-08T09:51:58.642Z,6.10
2019-02-08T09:57:12.427Z,6.30
2019-02-08T10:02:46.330Z,6.50
2019-02-08T10:08:03.391Z,6.60
2019-02-08T10:13:39.895Z,6.70
2019-02-08T10:19:12.495Z,6.70
2019-02-08T10:24:27.855Z,6.80
2019-02-08T10:29:59.675Z,6.80
2019-02-08T10:34:58.926Z,7.00
2019-02-08T10:40:03.489Z,7.20
2019-02-08T10:45:26.402Z,7.40
2019-02-08T10:51:14.694Z,7.60
2019-02-08T10:56:40.872Z,7.80
2019-02-08T11:02:17.697Z,7.90
2019-02-08T11:07:52.379Z,8.00
2019-02-08T11:13:16.676Z,8.10
2019-02-08T11:18:56.674Z,8.10
2019-02-08T11:23:51.909Z,8.00
2019-02-08T11:28:46.846Z,8.10
2019-02-08T11:33:41.628Z,8.20
2019-02-08T11:38:36.223Z,8.00
2019-02-08T11:43:30.965Z,8.20
2019-02-08T11:48:25.863Z,8.30
2019-02-08T11:53:24.389Z,8.40
2019-02-08T11:58:18.974Z,8.40
2019-02-08T12:03:13.909Z,8.50
2019-02-08T12:08:09.579Z,8.60
2019-02-08T12:18:07.091Z,8.80
2019-02-08T12:23:01.864Z,9.00
2019-02-08T12:27:56.750Z,8.80
2019-02-08T12:32:54.658Z,8.90
2019-02-08T12:37:49.616Z,9.30
2019-02-08T12:42:44.444Z,9.50
2019-02-08T12:47:40.501Z,9.40
2019-02-08T12:52:37.070Z,9.30
2019-02-08T12:57:34.848Z,9.40
2019-02-08T13:02:30.009Z,9.40
2019-02-08T13:07:35.333Z,9.40
2019-02-08T13:12:39.453Z,9.70
2019-02-08T13:17:53.375Z,9.50
2019-02-08T13:23:01.581Z,9.70
2019-02-08T13:28:03.212Z,9.80
2019-02-08T13:38:21.696Z,9.70
2019-02-08T13:43:16.528Z,9.70
2019-02-08T13:48:11.307Z,9.40
2019-02-08T13:53:06.144Z,9.60
2019-02-08T13:58:00.847Z,9.60
2019-02-08T14:02:55.633Z,9.70
2019-02-08T14:07:50.316Z,10.00
2019-02-08T14:12:44.994Z,10.30
2019-02-08T14:17:39.912Z,10.20
2019-02-08T14:22:37.526Z,10.20
2019-02-08T14:27:32.127Z,10.00
2019-02-08T14:32:26.788Z,9.90
2019-02-08T14:37:21.827Z,10.10
2019-02-08T14:42:16.722Z,9.90
2019-02-08T14:47:16.031Z,9.90
2019-02-08T14:52:11.175Z,10.20
2019-02-08T14:57:07.762Z,10.30
2019-02-08T15:02:03.526Z,10.30
2019-02-08T15:06:58.437Z,10.10
2019-02-08T15:11:53.492Z,10.00
2019-02-08T15:16:48.613Z,9.70
2019-02-08T15:21:50.031Z,9.00
2019-02-08T15:26:55.176Z,8.60
2019-02-08T15:31:50.200Z,8.60
2019-02-08T15:36:49.267Z,8.30
2019-02-08T15:41:41.631Z,8.10
2019-02-08T15:46:38.613Z,7.90
2019-02-08T15:51:33.793Z,7.80
2019-02-08T15:56:28.420Z,7.80
2019-02-08T16:01:23.301Z,7.60
2019-02-08T16:06:17.968Z,7.50
2019-02-08T16:11:12.699Z,7.40
2019-02-08T16:16:08.195Z,7.30
2019-02-08T16:21:02.859Z,7.10
2019-02-08T16:25:57.588Z,7.00
2019-02-08T16:30:52.167Z,6.90
2019-02-08T16:35:47.000Z,6.80
2019-02-08T16:40:41.672Z,6.70
2019-02-08T16:45:39.114Z,6.60
2019-02-08T16:50:35.495Z,6.50
2019-02-08T16:55:30.292Z,6.40
2019-02-08T17:00:32.107Z,6.30
2019-02-08T17:05:29.118Z,6.30
2019-02-08T17:10:23.716Z,6.20
2019-02-08T17:15:22.188Z,6.20
2019-02-08T17:20:29.923Z,6.00
2019-02-08T17:25:25.255Z,5.90
2019-02-08T17:30:21.461Z,5.80
2019-02-08T17:35:22.086Z,5.80
2019-02-08T17:40:26.695Z,5.80
2019-02-08T17:45:22.388Z,5.80
2019-02-08T17:50:24.335Z,5.80
2019-02-08T17:55:22.519Z,5.80
2019-02-08T18:00:37.584Z,5.70
2019-02-08T18:05:32.175Z,5.60
2019-02-08T18:10:28.973Z,5.60
2019-02-08T18:15:25.881Z,5.30
2019-02-08T18:20:45.987Z,5.30
2019-02-08T18:25:40.771Z,5.20
2019-02-08T18:30:35.567Z,5.20
2019-02-08T18:35:30.226Z,5.10
2019-02-08T18:40:27.828Z,5.00
2019-02-08T18:45:34.520Z,4.80
2019-02-08T18:50:38.917Z,4.60
2019-02-08T18:55:33.503Z,4.40
2019-02-08T19:00:41.615Z,4.20
2019-02-08T19:05:36.336Z,4.30
2019-02-08T19:10:31.009Z,4.10
2019-02-08T19:15:26.830Z,4.00
2019-02-08T19:20:27.541Z,3.90
2019-02-08T19:25:34.813Z,3.80
2019-02-08T19:30:36.443Z,3.70
2019-02-08T19:35:31.156Z,3.50
2019-02-08T19:40:35.199Z,3.50
2019-02-08T19:45:30.112Z,3.50
2019-02-08T19:50:30.821Z,3.20
2019-02-08T19:55:26.606Z,3.10
2019-02-08T20:00:37.428Z,3.10
2019-02-08T20:05:32.081Z,3.20
2019-02-08T20:10:43.330Z,3.10
2019-02-08T20:15:37.976Z,3.20
2019-02-08T20:20:32.710Z,3.20
2019-02-08T20:25:30.712Z,3.10
2019-02-08T20:30:28.247Z,3.10
2019-02-08T20:35:25.656Z,3.10
2019-02-08T20:40:30.275Z,3.10
2019-02-08T20:45:28.951Z,3.20
2019-02-08T20:50:25.173Z,3.20
2019-02-08T20:55:21.856Z,3.10
2019-02-08T21:00:28.091Z,3.10
2019-02-08T21:05:23.108Z,3.10
2019-02-08T21:10:17.693Z,3.20
2019-02-08T21:15:17.000Z,3.20
2019-02-08T21:20:17.904Z,3.30
2019-02-08T21:25:29.238Z,3.40
2019-02-08T21:30:24.232Z,3.50
2019-02-08T21:35:21.934Z,3.60
2019-02-08T21:40:26.125Z,3.60
2019-02-08T21:45:39.161Z,3.60
2019-02-08T21:50:33.903Z,3.50
2019-02-08T21:55:30.104Z,3.60
2019-02-08T22:00:30.804Z,3.60
2019-02-08T22:05:29.469Z,3.60
2019-02-08T22:10:24.139Z,3.50
2019-02-08T22:15:29.214Z,3.40
2019-02-08T22:20:23.867Z,3.50
2019-02-08T22:25:22.907Z,3.50
2019-02-08T22:30:21.930Z,3.40
2019-02-08T22:35:19.688Z,3.30
2019-02-08T22:40:20.541Z,3.30
2019-02-08T22:45:22.505Z,3.30
2019-02-08T22:50:17.592Z,3.30
2019-02-08T22:55:19.170Z,3.30
2019-02-08T23:00:40.792Z,3.10
2019-02-08T23:05:35.489Z,3.10
2019-02-08T23:10:30.485Z,3.00
2019-02-08T23:15:25.585Z,2.80
2019-02-08T23:20:20.254Z,2.60
2019-02-08T23:25:15.042Z,2.40
2019-02-08T23:30:17.103Z,2.40
2019-02-08T23:35:14.201Z,2.40
2019-02-08T23:40:12.067Z,2.20
2019-02-08T23:45:25.359Z,2.20
2019-02-08T23:50:23.669Z,2.20
2019-02-08T23:55:22.173Z,2.20
